createdAt,value
2022-11-19T00:02:05.542Z,99154.38
2022-11-19T00:04:33.813Z,99166.63
2022-11-19T00:07:03.328Z,99168.22
2022-11-19T00:09:31.533Z,99171.22
2022-11-19T00:12:17.294Z,99172.72
2022-11-19T00:14:45.815Z,99179.53
2022-11-19T00:17:13.903Z,99183.03
2022-11-19T00:19:42.097Z,99181.00
2022-11-19T00:22:11.642Z,99188.56
2022-11-19T00:24:40.306Z,99186.59
2022-11-19T00:27:08.520Z,99187.28
2022-11-19T00:29:36.599Z,99194.13
2022-11-19T00:32:04.890Z,99201.34
2022-11-19T00:34:33.008Z,99203.09
2022-11-19T00:37:02.172Z,99204.53
2022-11-19T00:39:31.777Z,99200.59
2022-11-19T00:41:59.887Z,99199.09
2022-11-19T00:44:32.596Z,99193.72
2022-11-19T00:47:03.886Z,99200.25
2022-11-19T00:49:32.024Z,99206.97
2022-11-19T00:52:00.152Z,99201.75
2022-11-19T00:54:28.318Z,99220.25
2022-11-19T00:56:57.875Z,99206.16
2022-11-19T00:59:26.019Z,99210.00
2022-11-19T01:01:54.295Z,99209.66
2022-11-19T01:04:22.474Z,99205.38
2022-11-19T01:06:50.682Z,99205.00
2022-11-19T01:09:19.085Z,99215.91
2022-11-19T01:11:47.550Z,99218.59
2022-11-19T01:14:17.111Z,99230.63
2022-11-19T01:16:45.201Z,99241.78
2022-11-19T01:19:16.486Z,99247.25
2022-11-19T01:21:44.968Z,99242.66
2022-11-19T01:24:13.190Z,99252.03
2022-11-19T01:26:45.610Z,99254.25
2022-11-19T01:29:14.427Z,99246.34
2022-11-19T01:31:44.105Z,99248.38
2022-11-19T01:34:12.355Z,99241.34
2022-11-19T01:36:40.454Z,99252.31
2022-11-19T01:39:08.744Z,99258.88
2022-11-19T01:41:36.912Z,99250.34
2022-11-19T01:44:07.496Z,99253.03
2022-11-19T01:46:39.782Z,99252.88
2022-11-19T01:49:13.999Z,99250.53
2022-11-19T01:51:48.418Z,99253.81
2022-11-19T01:54:24.420Z,99261.81
2022-11-19T01:56:53.171Z,99256.84
2022-11-19T01:59:22.152Z,99263.53
2022-11-19T02:01:50.551Z,99266.13
2022-11-19T02:04:22.006Z,99253.28
2022-11-19T02:06:50.242Z,99258.22
2022-11-19T02:09:18.573Z,99261.56
2022-11-19T02:12:14.625Z,99261.22
2022-11-19T02:15:01.355Z,99262.34
2022-11-19T02:17:44.308Z,99264.81
2022-11-19T02:20:42.868Z,99263.97
2022-11-19T02:23:45.706Z,99271.41
2022-11-19T02:26:51.232Z,99289.94
2022-11-19T02:29:43.658Z,99295.38
2022-11-19T02:32:17.288Z,99302.69
2022-11-19T02:34:50.406Z,99299.16
2022-11-19T02:37:26.074Z,99315.72
2022-11-19T02:39:59.238Z,99313.16
2022-11-19T02:42:32.237Z,99326.69
2022-11-19T02:45:04.970Z,99319.69
2022-11-19T02:47:38.449Z,99329.22
2022-11-19T02:50:12.367Z,99334.31
2022-11-19T02:52:41.571Z,99346.38
2022-11-19T02:55:13.738Z,99337.84
2022-11-19T02:57:43.648Z,99337.06
2022-11-19T03:00:31.215Z,99335.06
2022-11-19T03:03:23.192Z,99344.09
2022-11-19T03:05:55.558Z,99343.00
2022-11-19T03:08:24.065Z,99347.50
2022-11-19T03:11:02.486Z,99361.34
2022-11-19T03:13:55.152Z,99370.81
2022-11-19T03:16:45.283Z,99382.94
2022-11-19T03:19:29.072Z,99380.25
2022-11-19T03:22:01.417Z,99387.63
2022-11-19T03:24:33.880Z,99390.38
2022-11-19T03:27:10.038Z,99390.25
2022-11-19T03:29:42.896Z,99399.53
2022-11-19T03:32:16.156Z,99403.78
2022-11-19T03:34:49.729Z,99416.06
2022-11-19T03:37:21.356Z,99415.22
2022-11-19T03:39:52.551Z,99419.91
2022-11-19T03:42:23.198Z,99442.88
2022-11-19T03:44:55.826Z,99448.97
2022-11-19T03:47:27.649Z,99452.19
2022-11-19T03:50:02.190Z,99461.69
2022-11-19T03:52:30.576Z,99456.38
2022-11-19T03:54:58.933Z,99468.00
2022-11-19T03:57:28.531Z,99481.47
2022-11-19T03:59:56.695Z,99473.97
2022-11-19T04:02:24.832Z,99486.41
2022-11-19T04:04:52.948Z,99486.91
2022-11-19T04:07:24.274Z,99482.38
2022-11-19T04:09:52.536Z,99483.25
2022-11-19T04:12:23.403Z,99491.78
2022-11-19T04:14:52.208Z,99495.44
2022-11-19T04:17:21.286Z,99500.91
2022-11-19T04:19:49.484Z,99492.00
2022-11-19T04:22:17.679Z,99499.16
2022-11-19T04:24:47.369Z,99504.41
2022-11-19T04:27:15.630Z,99501.06
2022-11-19T04:29:43.793Z,99509.22
2022-11-19T04:32:12.050Z,99513.06
2022-11-19T04:34:40.114Z,99506.94
2022-11-19T04:37:08.352Z,99532.56
2022-11-19T04:39:36.477Z,99538.41
2022-11-19T04:42:06.260Z,99550.38
2022-11-19T04:44:34.386Z,99544.50
2022-11-19T04:47:02.567Z,99555.59
2022-11-19T04:49:30.603Z,99553.25
2022-11-19T04:51:58.760Z,99558.63
2022-11-19T04:54:26.927Z,99551.69
2022-11-19T04:56:54.996Z,99565.56
2022-11-19T04:59:24.462Z,99568.94
2022-11-19T05:01:53.022Z,99573.88
2022-11-19T05:04:21.218Z,99588.91
2022-11-19T05:06:49.770Z,99588.53
2022-11-19T05:09:18.225Z,99596.00
2022-11-19T05:11:46.652Z,99599.47
2022-11-19T05:14:14.885Z,99604.53
2022-11-19T05:16:44.433Z,99626.56
2022-11-19T05:19:12.575Z,99632.41
2022-11-19T05:21:40.636Z,99631.97
2022-11-19T05:24:09.475Z,99638.06
2022-11-19T05:26:37.572Z,99640.41
2022-11-19T05:29:05.713Z,99653.53
2022-11-19T05:31:33.836Z,99656.00
2022-11-19T05:34:03.334Z,99663.66
2022-11-19T05:36:31.429Z,99672.28
2022-11-19T05:38:59.772Z,99691.06
2022-11-19T05:41:27.864Z,99697.00
2022-11-19T05:43:56.202Z,99699.59
2022-11-19T05:46:24.366Z,99711.97
2022-11-19T05:48:52.446Z,99721.28
2022-11-19T05:51:21.915Z,99727.44
2022-11-19T05:53:50.177Z,99744.25
2022-11-19T05:56:18.424Z,99747.66
2022-11-19T05:58:46.607Z,99748.31
2022-11-19T06:01:15.430Z,99751.13
2022-11-19T06:03:43.609Z,99770.34
2022-11-19T06:06:11.706Z,99776.34
2022-11-19T06:08:41.621Z,99784.31
2022-11-19T06:11:30.209Z,99789.81
2022-11-19T06:13:58.281Z,99787.66
2022-11-19T06:16:26.623Z,99799.84
2022-11-19T06:18:54.932Z,99818.47
2022-11-19T06:21:23.342Z,99805.59
2022-11-19T06:23:52.791Z,99799.03
2022-11-19T06:26:25.722Z,99787.34
2022-11-19T06:28:54.419Z,99800.72
2022-11-19T06:31:23.413Z,99812.44
2022-11-19T06:33:53.527Z,99825.88
2022-11-19T06:36:21.977Z,99836.94
2022-11-19T06:38:50.284Z,99841.94
2022-11-19T06:41:19.823Z,99841.56
2022-11-19T06:43:47.984Z,99854.44
2022-11-19T06:46:16.564Z,99859.22
2022-11-19T06:48:44.804Z,99871.50
2022-11-19T06:51:12.890Z,99867.22
2022-11-19T06:53:41.075Z,99878.38
2022-11-19T06:56:09.696Z,99870.69
2022-11-19T06:58:39.383Z,99875.31
2022-11-19T07:01:07.630Z,99866.00
2022-11-19T07:03:35.753Z,99861.28
2022-11-19T07:06:05.757Z,99862.56
2022-11-19T07:08:35.724Z,99865.31
2022-11-19T07:11:26.057Z,99877.13
2022-11-19T07:14:00.876Z,99879.34
2022-11-19T07:16:30.839Z,99886.00
2022-11-19T07:19:00.227Z,99899.00
2022-11-19T07:21:28.669Z,99903.88
2022-11-19T07:23:57.301Z,99903.03
2022-11-19T07:26:26.136Z,99896.84
2022-11-19T07:28:56.876Z,99903.34
2022-11-19T07:31:27.627Z,99906.09
2022-11-19T07:33:55.748Z,99903.84
2022-11-19T07:36:24.042Z,99917.06
2022-11-19T07:38:52.498Z,99919.41
2022-11-19T07:41:38.277Z,99923.69
2022-11-19T07:44:08.005Z,99929.16
2022-11-19T07:46:36.508Z,99931.66
2022-11-19T07:49:05.552Z,99940.06
2022-11-19T07:51:33.760Z,99942.56
2022-11-19T07:54:02.257Z,99944.47
2022-11-19T07:56:30.369Z,99936.00
2022-11-19T07:59:01.020Z,99936.34
2022-11-19T08:01:30.703Z,99946.59
2022-11-19T08:03:58.812Z,99939.00
2022-11-19T08:06:29.956Z,99955.47
2022-11-19T08:08:58.524Z,99958.22
2022-11-19T08:11:26.833Z,99964.28
2022-11-19T08:13:55.285Z,99979.31
2022-11-19T08:16:41.073Z,99978.28
2022-11-19T08:19:15.189Z,99994.06
2022-11-19T08:21:45.376Z,99988.28
2022-11-19T08:24:14.855Z,99989.00
2022-11-19T08:26:43.940Z,99995.88
2022-11-19T08:29:16.470Z,100003.16
2022-11-19T08:31:47.166Z,100005.13
2022-11-19T08:34:17.575Z,100010.63
2022-11-19T08:36:46.030Z,100013.22
2022-11-19T08:39:14.264Z,100018.56
2022-11-19T08:41:59.651Z,100022.97
2022-11-19T08:44:27.782Z,100011.69
2022-11-19T08:46:55.830Z,100026.88
2022-11-19T08:49:25.372Z,100031.69
2022-11-19T08:51:53.978Z,100046.72
2022-11-19T08:54:22.492Z,100047.75
2022-11-19T08:56:50.810Z,100057.50
2022-11-19T08:59:21.798Z,100051.97
2022-11-19T09:01:50.483Z,100051.78
2022-11-19T09:04:19.245Z,100056.53
2022-11-19T09:06:48.928Z,100052.84
2022-11-19T09:09:17.043Z,100048.84
2022-11-19T09:11:45.189Z,100054.63
2022-11-19T09:14:13.281Z,100052.91
2022-11-19T09:16:41.422Z,100057.88
2022-11-19T09:19:09.511Z,100049.09
2022-11-19T09:21:37.653Z,100048.84
2022-11-19T09:24:07.849Z,100041.69
2022-11-19T09:26:36.714Z,100041.50
2022-11-19T09:29:04.795Z,100039.00
2022-11-19T09:31:32.909Z,100036.88
2022-11-19T09:34:01.022Z,100052.63
2022-11-19T09:36:29.144Z,100059.50
2022-11-19T09:38:58.657Z,100063.13
2022-11-19T09:41:48.593Z,100064.44
2022-11-19T09:44:30.542Z,100065.38
2022-11-19T09:47:08.370Z,100054.69
2022-11-19T09:49:43.934Z,100053.81
2022-11-19T09:52:15.768Z,100057.34
2022-11-19T09:54:49.692Z,100051.97
2022-11-19T09:57:29.383Z,100070.31
2022-11-19T10:00:01.352Z,100078.28
2022-11-19T10:02:30.700Z,100078.69
2022-11-19T10:05:00.037Z,100075.41
2022-11-19T10:07:39.437Z,100070.31
2022-11-19T10:10:26.023Z,100076.91
2022-11-19T10:13:19.668Z,100081.75
2022-11-19T10:16:00.107Z,100081.03
2022-11-19T10:18:39.044Z,100093.59
2022-11-19T10:21:19.432Z,100085.53
2022-11-19T10:23:54.770Z,100089.66
2022-11-19T10:26:28.334Z,100087.72
2022-11-19T10:28:59.446Z,100084.03
2022-11-19T10:31:34.081Z,100088.19
2022-11-19T10:34:08.758Z,100086.06
2022-11-19T10:36:43.605Z,100092.44
2022-11-19T10:39:21.983Z,100090.78
2022-11-19T10:41:55.278Z,100105.38
2022-11-19T10:44:38.397Z,100100.16
2022-11-19T10:47:08.149Z,100099.38
2022-11-19T10:49:41.159Z,100110.59
2022-11-19T10:52:18.585Z,100108.59
2022-11-19T10:54:48.729Z,100111.88
2022-11-19T10:57:20.363Z,100109.13
2022-11-19T10:59:52.445Z,100116.28
2022-11-19T11:02:28.483Z,100115.88
2022-11-19T11:05:12.281Z,100113.22
2022-11-19T11:07:50.389Z,100110.63
2022-11-19T11:10:31.758Z,100117.41
2022-11-19T11:13:25.154Z,100123.72
2022-11-19T11:15:55.468Z,100112.19
2022-11-19T11:18:31.423Z,100116.03
2022-11-19T11:20:59.766Z,100121.78
2022-11-19T11:23:30.528Z,100124.53
2022-11-19T11:26:07.316Z,100125.41
2022-11-19T11:28:36.715Z,100121.84
2022-11-19T11:31:10.281Z,100132.88
2022-11-19T11:33:41.542Z,100133.41
2022-11-19T11:36:12.713Z,100135.25
2022-11-19T11:38:43.916Z,100140.31
2022-11-19T11:44:05.180Z,100143.31
2022-11-19T11:46:47.854Z,100150.22
2022-11-19T11:49:26.272Z,100154.75
2022-11-19T11:52:08.442Z,100149.69
2022-11-19T11:54:37.460Z,100150.16
2022-11-19T11:57:19.801Z,100143.38
2022-11-19T11:59:47.978Z,100140.25
2022-11-19T12:02:30.572Z,100148.00
2022-11-19T12:05:02.532Z,100145.72
2022-11-19T12:08:12.734Z,100142.44
2022-11-19T12:10:47.598Z,100132.75
2022-11-19T12:13:43.386Z,100126.47
2022-11-19T12:16:19.710Z,100123.81
2022-11-19T12:19:03.936Z,100128.94
2022-11-19T12:21:43.681Z,100121.56
2022-11-19T12:24:23.978Z,100117.78
2022-11-19T12:27:06.849Z,100119.41
2022-11-19T12:29:42.500Z,100108.91
2022-11-19T12:32:22.570Z,100112.47
2022-11-19T12:35:26.514Z,100104.09
2022-11-19T12:38:16.583Z,100109.50
2022-11-19T12:40:55.243Z,100106.28
2022-11-19T12:43:44.018Z,100103.50
2022-11-19T12:46:21.626Z,100106.94
2022-11-19T12:49:04.241Z,100100.03
2022-11-19T12:51:46.293Z,100109.38
2022-11-19T12:54:34.411Z,100115.66
2022-11-19T12:57:17.680Z,100117.28
2022-11-19T13:00:03.226Z,100123.53
2022-11-19T13:02:36.427Z,100122.72
2022-11-19T13:05:08.520Z,100126.19
2022-11-19T13:07:42.666Z,100131.53
2022-11-19T13:10:19.073Z,100136.75
2022-11-19T13:12:51.192Z,100140.59
2022-11-19T13:15:22.377Z,100135.97
2022-11-19T13:17:53.058Z,100142.91
2022-11-19T13:20:27.809Z,100146.31
2022-11-19T13:23:00.889Z,100161.31
2022-11-19T13:25:33.124Z,100168.56
2022-11-19T13:28:04.693Z,100174.59
2022-11-19T13:30:35.547Z,100175.94
2022-11-19T13:33:14.009Z,100182.03
2022-11-19T13:35:48.636Z,100200.09
2022-11-19T13:38:25.028Z,100199.91
2022-11-19T13:41:00.891Z,100198.22
2022-11-19T13:43:46.378Z,100211.63
2022-11-19T13:46:23.159Z,100212.56
2022-11-19T13:48:57.951Z,100225.88
2022-11-19T13:51:30.501Z,100221.25
2022-11-19T13:54:03.736Z,100224.31
2022-11-19T13:56:45.442Z,100227.03
2022-11-19T13:59:30.941Z,100229.31
2022-11-19T14:02:21.260Z,100231.59
2022-11-19T14:05:09.665Z,100234.00
2022-11-19T14:08:00.310Z,100237.00
2022-11-19T14:10:37.606Z,100238.72
2022-11-19T14:13:23.799Z,100244.56
2022-11-19T14:16:23.618Z,100239.88
2022-11-19T14:19:12.885Z,100241.09
2022-11-19T14:22:10.243Z,100231.69
2022-11-19T14:25:13.175Z,100237.75
2022-11-19T14:27:43.145Z,100242.19
2022-11-19T14:30:17.364Z,100240.09
2022-11-19T14:32:48.935Z,100243.44
2022-11-19T14:35:36.776Z,100252.84
2022-11-19T14:38:36.523Z,100246.13
2022-11-19T14:41:18.974Z,100251.97
2022-11-19T14:44:11.595Z,100257.03
2022-11-19T14:46:45.096Z,100249.44
2022-11-19T14:49:33.606Z,100254.25
2022-11-19T14:52:02.867Z,100256.94
2022-11-19T14:54:39.427Z,100265.75
2022-11-19T14:57:26.943Z,100264.97
2022-11-19T15:00:00.071Z,100260.31
2022-11-19T15:02:32.890Z,100257.66
2022-11-19T15:05:08.648Z,100269.50
2022-11-19T15:07:49.031Z,100270.06
2022-11-19T15:10:33.351Z,100274.78
2022-11-19T15:13:25.797Z,100268.41
2022-11-19T15:15:58.799Z,100293.97
2022-11-19T15:18:55.107Z,100292.63
2022-11-19T15:21:51.270Z,100293.53
2022-11-19T15:24:29.595Z,100296.06
2022-11-19T15:27:05.739Z,100298.31
2022-11-19T15:29:57.586Z,100299.63
2022-11-19T15:32:41.243Z,100280.28
2022-11-19T15:35:36.786Z,100287.38
2022-11-19T15:38:18.548Z,100281.31
2022-11-19T15:40:49.624Z,100270.66
2022-11-19T15:43:25.267Z,100270.56
2022-11-19T15:45:57.715Z,100272.31
2022-11-19T15:48:36.850Z,100273.94
2022-11-19T15:51:08.301Z,100269.78
2022-11-19T15:53:36.573Z,100274.00
2022-11-19T15:56:08.717Z,100279.53
2022-11-19T15:58:40.926Z,100292.50
2022-11-19T16:01:10.208Z,100294.19
2022-11-19T16:03:40.662Z,100304.44
2022-11-19T16:06:11.780Z,100313.31
2022-11-19T16:08:40.106Z,100316.13
2022-11-19T16:11:28.007Z,100305.34
2022-11-19T16:14:13.864Z,100311.31
2022-11-19T16:16:59.245Z,100308.63
2022-11-19T16:19:28.690Z,100304.91
2022-11-19T16:22:00.948Z,100311.19
2022-11-19T16:24:48.589Z,100306.88
2022-11-19T16:27:25.214Z,100308.22
2022-11-19T16:29:53.415Z,100307.78
2022-11-19T16:32:23.509Z,100316.56
2022-11-19T16:34:53.166Z,100316.88
2022-11-19T16:37:23.190Z,100308.00
2022-11-19T16:39:53.313Z,100305.75
2022-11-19T16:42:26.922Z,100304.84
2022-11-19T16:44:57.086Z,100305.41
2022-11-19T16:47:30.210Z,100307.63
2022-11-19T16:50:06.352Z,100316.97
2022-11-19T16:52:39.549Z,100315.41
2022-11-19T16:55:30.147Z,100315.41
2022-11-19T16:58:01.126Z,100312.03
2022-11-19T17:00:33.706Z,100327.91
2022-11-19T17:03:16.609Z,100325.53
2022-11-19T17:05:48.913Z,100330.47
2022-11-19T17:08:23.348Z,100321.03
2022-11-19T17:11:11.455Z,100305.94
2022-11-19T17:13:39.705Z,100314.78
2022-11-19T17:16:18.970Z,100311.44
2022-11-19T17:18:47.112Z,100311.56
2022-11-19T17:21:27.166Z,100314.78
2022-11-19T17:23:55.763Z,100307.03
2022-11-19T17:26:27.452Z,100304.25
2022-11-19T17:29:09.152Z,100308.63
2022-11-19T17:31:37.544Z,100319.50
2022-11-19T17:34:12.437Z,100331.31
2022-11-19T17:36:42.537Z,100327.66
2022-11-19T17:39:12.136Z,100325.91
2022-11-19T17:41:58.466Z,100332.66
2022-11-19T17:44:35.717Z,100322.22
2022-11-19T17:47:07.430Z,100321.84
2022-11-19T17:49:47.008Z,100330.75
2022-11-19T17:52:23.701Z,100343.75
2022-11-19T17:54:52.611Z,100344.22
2022-11-19T17:57:20.779Z,100356.88
2022-11-19T17:59:48.887Z,100351.16
2022-11-19T18:02:19.544Z,100356.44
2022-11-19T18:04:48.930Z,100355.50
2022-11-19T18:07:17.267Z,100354.41
2022-11-19T18:09:46.778Z,100351.06
2022-11-19T18:12:17.921Z,100345.50
2022-11-19T18:14:46.461Z,100349.88
2022-11-19T18:17:15.513Z,100347.50
2022-11-19T18:19:43.682Z,100336.22
2022-11-19T18:22:18.513Z,100348.66
2022-11-19T18:24:49.909Z,100347.44
2022-11-19T18:27:18.631Z,100354.28
2022-11-19T18:29:46.748Z,100339.19
2022-11-19T18:32:16.977Z,100335.63
2022-11-19T18:34:46.404Z,100338.72
2022-11-19T18:37:14.896Z,100333.34
2022-11-19T18:39:43.082Z,100340.13
2022-11-19T18:42:13.227Z,100327.84
2022-11-19T18:44:43.441Z,100327.63
2022-11-19T18:47:13.845Z,100340.22
2022-11-19T18:49:42.633Z,100337.88
2022-11-19T18:52:15.057Z,100330.56
2022-11-19T18:54:43.264Z,100332.47
2022-11-19T18:57:13.573Z,100337.25
2022-11-19T18:59:41.920Z,100333.00
2022-11-19T19:02:11.016Z,100339.66
2022-11-19T19:04:39.236Z,100348.56
2022-11-19T19:07:07.375Z,100349.03
2022-11-19T19:09:37.431Z,100337.38
2022-11-19T19:12:21.613Z,100335.31
2022-11-19T19:14:52.629Z,100327.91
2022-11-19T19:17:21.131Z,100325.25
2022-11-19T19:19:49.867Z,100332.06
2022-11-19T19:22:18.394Z,100324.44
2022-11-19T19:24:47.147Z,100309.88
2022-11-19T19:27:15.974Z,100327.44
2022-11-19T19:29:44.126Z,100318.94
2022-11-19T19:32:13.587Z,100318.94
2022-11-19T19:34:41.706Z,100322.47
2022-11-19T19:37:09.982Z,100330.16
2022-11-19T19:39:38.060Z,100330.53
2022-11-19T19:42:06.464Z,100326.09
2022-11-19T19:44:34.619Z,100322.94
2022-11-19T19:47:02.840Z,100315.84
2022-11-19T19:49:37.494Z,100320.75
2022-11-19T19:52:07.196Z,100314.75
2022-11-19T19:54:35.330Z,100312.38
2022-11-19T19:57:03.823Z,100321.34
2022-11-19T19:59:31.959Z,100332.59
2022-11-19T20:02:00.171Z,100324.25
2022-11-19T20:04:28.394Z,100315.31
2022-11-19T20:06:57.973Z,100306.59
2022-11-19T20:09:26.554Z,100305.66
2022-11-19T20:11:55.511Z,100307.88
2022-11-19T20:14:23.643Z,100307.91
2022-11-19T20:16:51.790Z,100298.28
2022-11-19T20:19:19.967Z,100299.66
2022-11-19T20:21:48.242Z,100289.34
2022-11-19T20:24:18.786Z,100294.59
2022-11-19T20:26:47.059Z,100296.88
2022-11-19T20:29:17.758Z,100294.81
2022-11-19T20:31:48.040Z,100292.59
2022-11-19T20:34:17.373Z,100294.91
2022-11-19T20:36:45.595Z,100294.56
2022-11-19T20:39:13.990Z,100297.09
2022-11-19T20:42:00.902Z,100278.66
2022-11-19T20:44:29.008Z,100282.44
2022-11-19T20:46:58.897Z,100284.88
2022-11-19T20:49:29.126Z,100281.72
2022-11-19T20:51:57.703Z,100277.66
2022-11-19T20:54:26.802Z,100292.16
2022-11-19T20:56:57.807Z,100289.63
2022-11-19T20:59:26.634Z,100296.28
2022-11-19T21:01:56.123Z,100298.47
2022-11-19T21:04:25.584Z,100287.03
2022-11-19T21:06:54.059Z,100292.53
2022-11-19T21:09:22.695Z,100280.31
2022-11-19T21:11:51.136Z,100266.84
2022-11-19T21:14:20.883Z,100268.16
2022-11-19T21:16:49.523Z,100255.03
2022-11-19T21:19:17.959Z,100247.38
2022-11-19T21:21:46.068Z,100246.28
2022-11-19T21:24:14.229Z,100232.59
2022-11-19T21:26:42.625Z,100233.25
2022-11-19T21:29:10.824Z,100245.19
2022-11-19T21:31:42.238Z,100243.25
2022-11-19T21:34:12.348Z,100237.06
2022-11-19T21:36:41.976Z,100237.19
2022-11-19T21:39:11.235Z,100240.59
2022-11-19T21:41:39.455Z,100245.44
2022-11-19T21:44:08.888Z,100250.28
2022-11-19T21:46:37.579Z,100237.69
2022-11-19T21:49:07.518Z,100238.28
2022-11-19T21:51:36.617Z,100233.13
2022-11-19T21:54:09.598Z,100227.16
2022-11-19T21:56:38.943Z,100221.41
2022-11-19T21:59:07.904Z,100232.78
2022-11-19T22:01:36.488Z,100218.41
2022-11-19T22:04:06.318Z,100223.69
2022-11-19T22:06:36.303Z,100217.19
2022-11-19T22:09:04.640Z,100222.16
2022-11-19T22:11:32.979Z,100212.25
2022-11-19T22:14:02.897Z,100208.44
2022-11-19T22:16:32.695Z,100205.94
2022-11-19T22:19:00.935Z,100195.06
2022-11-19T22:21:30.659Z,100192.94
2022-11-19T22:23:59.496Z,100203.81
2022-11-19T22:26:28.031Z,100183.91
2022-11-19T22:28:56.675Z,100177.53
2022-11-19T22:31:26.139Z,100174.50
2022-11-19T22:33:55.626Z,100178.34
2022-11-19T22:36:24.925Z,100168.00
2022-11-19T22:38:54.482Z,100179.88
2022-11-19T22:41:23.925Z,100173.13
2022-11-19T22:43:52.722Z,100166.63
2022-11-19T22:46:21.554Z,100160.22
2022-11-19T22:48:49.961Z,100157.16
2022-11-19T22:51:20.564Z,100166.59
2022-11-19T22:53:49.511Z,100158.31
2022-11-19T22:56:22.127Z,100164.56
2022-11-19T22:58:51.025Z,100154.13
2022-11-19T23:01:22.520Z,100151.25
2022-11-19T23:03:50.968Z,100154.03
2022-11-19T23:06:19.627Z,100148.88
2022-11-19T23:08:48.033Z,100149.56
2022-11-19T23:11:40.367Z,100142.00
2022-11-19T23:14:09.110Z,100145.50
2022-11-19T23:16:38.243Z,100152.44
2022-11-19T23:19:07.180Z,100135.16
2022-11-19T23:21:35.562Z,100133.50
2022-11-19T23:24:03.765Z,100126.06
2022-11-19T23:26:34.492Z,100136.97
2022-11-19T23:29:02.725Z,100128.53
2022-11-19T23:31:32.542Z,100139.31
2022-11-19T23:34:00.924Z,100140.22
2022-11-19T23:36:31.161Z,100130.09
2022-11-19T23:38:59.989Z,100134.03
2022-11-19T23:41:28.813Z,100136.03
2022-11-19T23:43:58.370Z,100132.25
2022-11-19T23:46:28.504Z,100110.28
2022-11-19T23:48:58.009Z,100118.16
2022-11-19T23:51:27.869Z,100123.91
2022-11-19T23:53:56.665Z,100131.59
2022-11-19T23:56:26.245Z,100129.00
2022-11-19T23:58:54.643Z,100123.03
